sensor_id;sensor_type;location;lat;lon;timestamp;P1;durP1;ratioP1;P2;durP2;ratioP2
28958;SDS011;16066;0.000;0.000;2022-10-22T00:01:48;7.20;;;3.90;;
28958;SDS011;16066;0.000;0.000;2022-10-22T00:04:14;5.97;;;3.80;;
28958;SDS011;16066;0.000;0.000;2022-10-22T00:06:39;9.83;;;4.27;;
28958;SDS011;16066;0.000;0.000;2022-10-22T00:09:06;7.70;;;3.87;;
28958;SDS011;16066;0.000;0.000;2022-10-22T00:11:32;4.77;;;3.70;;
28958;SDS011;16066;0.000;0.000;2022-10-22T00:13:58;10.33;;;4.47;;
28958;SDS011;16066;0.000;0.000;2022-10-22T00:16:23;6.50;;;3.10;;
28958;SDS011;16066;0.000;0.000;2022-10-22T00:18:49;7.10;;;4.03;;
28958;SDS011;16066;0.000;0.000;2022-10-22T00:21:14;7.30;;;4.07;;
28958;SDS011;16066;0.000;0.000;2022-10-22T00:23:40;8.50;;;3.70;;
28958;SDS011;16066;0.000;0.000;2022-10-22T00:26:07;7.63;;;4.00;;
28958;SDS011;16066;0.000;0.000;2022-10-22T00:28:33;6.80;;;3.43;;
28958;SDS011;16066;0.000;0.000;2022-10-22T00:30:59;5.30;;;3.07;;
28958;SDS011;16066;0.000;0.000;2022-10-22T00:33:26;8.80;;;4.00;;
28958;SDS011;16066;0.000;0.000;2022-10-22T00:35:52;7.60;;;3.47;;
28958;SDS011;16066;0.000;0.000;2022-10-22T00:38:18;5.93;;;3.27;;
28958;SDS011;16066;0.000;0.000;2022-10-22T00:40:44;5.50;;;3.47;;
28958;SDS011;16066;0.000;0.000;2022-10-22T00:43:10;7.50;;;3.83;;
28958;SDS011;16066;0.000;0.000;2022-10-22T00:45:37;8.60;;;4.37;;
28958;SDS011;16066;0.000;0.000;2022-10-22T00:53:14;5.30;;;3.10;;
28958;SDS011;16066;0.000;0.000;2022-10-22T00:55:43;8.40;;;3.83;;
28958;SDS011;16066;0.000;0.000;2022-10-22T00:58:10;5.23;;;3.20;;
28958;SDS011;16066;0.000;0.000;2022-10-22T01:00:37;6.23;;;3.10;;
28958;SDS011;16066;0.000;0.000;2022-10-22T01:03:03;6.63;;;3.80;;
28958;SDS011;16066;0.000;0.000;2022-10-22T01:05:29;8.27;;;3.33;;
28958;SDS011;16066;0.000;0.000;2022-10-22T01:08:01;7.13;;;3.23;;
28958;SDS011;16066;0.000;0.000;2022-10-22T01:10:38;8.07;;;3.20;;
28958;SDS011;16066;0.000;0.000;2022-10-22T01:16:07;11.63;;;2.73;;
28958;SDS011;16066;0.000;0.000;2022-10-22T01:21:33;5.87;;;2.50;;
28958;SDS011;16066;0.000;0.000;2022-10-22T01:29:39;5.37;;;2.37;;
28958;SDS011;16066;0.000;0.000;2022-10-22T01:32:10;5.20;;;2.83;;
28958;SDS011;16066;0.000;0.000;2022-10-22T01:34:40;7.13;;;2.93;;
28958;SDS011;16066;0.000;0.000;2022-10-22T01:37:09;4.77;;;3.00;;
28958;SDS011;16066;0.000;0.000;2022-10-22T01:39:37;9.23;;;3.27;;
28958;SDS011;16066;0.000;0.000;2022-10-22T01:42:05;4.90;;;3.07;;
28958;SDS011;16066;0.000;0.000;2022-10-22T01:44:31;4.60;;;3.00;;
28958;SDS011;16066;0.000;0.000;2022-10-22T01:47:13;10.33;;;3.40;;
28958;SDS011;16066;0.000;0.000;2022-10-22T01:53:09;5.60;;;3.37;;
28958;SDS011;16066;0.000;0.000;2022-10-22T01:59:01;7.30;;;3.10;;
28958;SDS011;16066;0.000;0.000;2022-10-22T02:01:47;6.50;;;3.40;;
28958;SDS011;16066;0.000;0.000;2022-10-22T02:04:27;8.77;;;3.40;;
28958;SDS011;16066;0.000;0.000;2022-10-22T02:06:58;3.57;;;2.60;;
28958;SDS011;16066;0.000;0.000;2022-10-22T02:09:26;5.10;;;3.80;;
28958;SDS011;16066;0.000;0.000;2022-10-22T02:11:54;5.30;;;3.13;;
28958;SDS011;16066;0.000;0.000;2022-10-22T02:14:22;8.50;;;2.73;;
28958;SDS011;16066;0.000;0.000;2022-10-22T02:16:51;5.50;;;3.30;;
28958;SDS011;16066;0.000;0.000;2022-10-22T02:19:23;15.00;;;3.20;;
28958;SDS011;16066;0.000;0.000;2022-10-22T02:21:49;5.77;;;3.17;;
28958;SDS011;16066;0.000;0.000;2022-10-22T02:24:16;7.70;;;3.07;;
28958;SDS011;16066;0.000;0.000;2022-10-22T02:26:47;7.13;;;3.30;;
28958;SDS011;16066;0.000;0.000;2022-10-22T02:29:26;8.23;;;2.87;;
28958;SDS011;16066;0.000;0.000;2022-10-22T02:32:00;5.50;;;2.70;;
28958;SDS011;16066;0.000;0.000;2022-10-22T02:34:28;5.63;;;2.83;;
28958;SDS011;16066;0.000;0.000;2022-10-22T02:36:55;7.00;;;3.70;;
28958;SDS011;16066;0.000;0.000;2022-10-22T02:39:23;5.73;;;3.07;;
28958;SDS011;16066;0.000;0.000;2022-10-22T02:41:50;8.73;;;3.37;;
28958;SDS011;16066;0.000;0.000;2022-10-22T02:44:18;7.93;;;3.40;;
28958;SDS011;16066;0.000;0.000;2022-10-22T02:46:45;6.60;;;3.13;;
28958;SDS011;16066;0.000;0.000;2022-10-22T02:49:11;4.60;;;3.20;;
28958;SDS011;16066;0.000;0.000;2022-10-22T02:51:36;4.37;;;2.83;;
28958;SDS011;16066;0.000;0.000;2022-10-22T02:54:02;3.33;;;3.03;;
28958;SDS011;16066;0.000;0.000;2022-10-22T02:56:28;4.83;;;2.40;;
28958;SDS011;16066;0.000;0.000;2022-10-22T02:58:53;5.40;;;2.93;;
28958;SDS011;16066;0.000;0.000;2022-10-22T03:01:19;5.47;;;3.23;;
28958;SDS011;16066;0.000;0.000;2022-10-22T03:03:44;9.30;;;3.13;;
28958;SDS011;16066;0.000;0.000;2022-10-22T03:06:10;5.00;;;2.93;;
28958;SDS011;16066;0.000;0.000;2022-10-22T03:08:35;6.83;;;3.03;;
28958;SDS011;16066;0.000;0.000;2022-10-22T03:11:01;6.27;;;3.50;;
28958;SDS011;16066;0.000;0.000;2022-10-22T03:13:27;7.17;;;3.07;;
28958;SDS011;16066;0.000;0.000;2022-10-22T03:15:52;6.40;;;2.90;;
28958;SDS011;16066;0.000;0.000;2022-10-22T03:18:18;5.00;;;3.47;;
28958;SDS011;16066;0.000;0.000;2022-10-22T03:20:43;7.63;;;3.60;;
28958;SDS011;16066;0.000;0.000;2022-10-22T03:23:10;4.17;;;2.90;;
28958;SDS011;16066;0.000;0.000;2022-10-22T03:25:38;5.93;;;3.17;;
28958;SDS011;16066;0.000;0.000;2022-10-22T03:28:06;5.47;;;2.67;;
28958;SDS011;16066;0.000;0.000;2022-10-22T03:30:35;5.40;;;3.47;;
28958;SDS011;16066;0.000;0.000;2022-10-22T03:33:00;7.57;;;3.23;;
28958;SDS011;16066;0.000;0.000;2022-10-22T03:35:26;7.50;;;3.90;;
28958;SDS011;16066;0.000;0.000;2022-10-22T03:37:52;6.63;;;3.20;;
28958;SDS011;16066;0.000;0.000;2022-10-22T03:40:18;8.00;;;3.20;;
28958;SDS011;16066;0.000;0.000;2022-10-22T03:42:44;7.73;;;3.50;;
28958;SDS011;16066;0.000;0.000;2022-10-22T03:45:10;9.03;;;3.50;;
28958;SDS011;16066;0.000;0.000;2022-10-22T03:47:36;5.17;;;2.90;;
28958;SDS011;16066;0.000;0.000;2022-10-22T03:50:01;6.60;;;3.70;;
28958;SDS011;16066;0.000;0.000;2022-10-22T03:52:28;5.70;;;3.30;;
28958;SDS011;16066;0.000;0.000;2022-10-22T03:54:58;6.33;;;3.80;;
28958;SDS011;16066;0.000;0.000;2022-10-22T03:57:24;7.37;;;3.90;;
28958;SDS011;16066;0.000;0.000;2022-10-22T03:59:49;4.40;;;3.33;;
28958;SDS011;16066;0.000;0.000;2022-10-22T04:02:15;5.83;;;3.10;;
28958;SDS011;16066;0.000;0.000;2022-10-22T04:04:41;4.60;;;2.90;;
28958;SDS011;16066;0.000;0.000;2022-10-22T04:07:06;6.53;;;4.30;;
28958;SDS011;16066;0.000;0.000;2022-10-22T04:09:32;6.67;;;3.37;;
28958;SDS011;16066;0.000;0.000;2022-10-22T04:11:58;6.23;;;3.37;;
28958;SDS011;16066;0.000;0.000;2022-10-22T04:14:24;5.87;;;3.57;;
28958;SDS011;16066;0.000;0.000;2022-10-22T04:16:49;5.47;;;3.00;;
28958;SDS011;16066;0.000;0.000;2022-10-22T04:19:15;4.60;;;3.17;;
28958;SDS011;16066;0.000;0.000;2022-10-22T04:21:41;5.47;;;3.40;;
28958;SDS011;16066;0.000;0.000;2022-10-22T04:24:06;6.10;;;3.30;;
28958;SDS011;16066;0.000;0.000;2022-10-22T04:26:32;8.47;;;3.70;;
28958;SDS011;16066;0.000;0.000;2022-10-22T04:28:58;4.77;;;3.60;;
28958;SDS011;16066;0.000;0.000;2022-10-22T04:31:24;6.03;;;3.40;;
28958;SDS011;16066;0.000;0.000;2022-10-22T04:33:53;7.43;;;3.50;;
28958;SDS011;16066;0.000;0.000;2022-10-22T04:36:19;7.10;;;3.73;;
28958;SDS011;16066;0.000;0.000;2022-10-22T04:38:46;6.30;;;3.03;;
28958;SDS011;16066;0.000;0.000;2022-10-22T04:41:17;7.10;;;3.60;;
28958;SDS011;16066;0.000;0.000;2022-10-22T04:43:44;8.03;;;3.00;;
28958;SDS011;16066;0.000;0.000;2022-10-22T04:46:10;5.03;;;3.00;;
28958;SDS011;16066;0.000;0.000;2022-10-22T04:48:38;14.83;;;3.40;;
28958;SDS011;16066;0.000;0.000;2022-10-22T04:51:05;7.07;;;2.67;;
28958;SDS011;16066;0.000;0.000;2022-10-22T04:53:33;5.60;;;3.10;;
28958;SDS011;16066;0.000;0.000;2022-10-22T04:56:09;4.50;;;2.77;;
28958;SDS011;16066;0.000;0.000;2022-10-22T04:58:41;5.57;;;3.40;;
28958;SDS011;16066;0.000;0.000;2022-10-22T05:01:08;5.03;;;3.37;;
28958;SDS011;16066;0.000;0.000;2022-10-22T05:03:34;8.30;;;3.60;;
28958;SDS011;16066;0.000;0.000;2022-10-22T05:06:00;7.07;;;3.40;;
28958;SDS011;16066;0.000;0.000;2022-10-22T05:08:26;6.40;;;3.53;;
28958;SDS011;16066;0.000;0.000;2022-10-22T05:10:51;3.53;;;3.03;;
28958;SDS011;16066;0.000;0.000;2022-10-22T05:13:17;5.63;;;3.23;;
28958;SDS011;16066;0.000;0.000;2022-10-22T05:15:42;7.00;;;3.10;;
28958;SDS011;16066;0.000;0.000;2022-10-22T05:18:08;8.60;;;3.90;;
28958;SDS011;16066;0.000;0.000;2022-10-22T05:20:33;5.90;;;2.93;;
28958;SDS011;16066;0.000;0.000;2022-10-22T05:22:59;5.10;;;3.43;;
28958;SDS011;16066;0.000;0.000;2022-10-22T05:25:24;4.70;;;3.50;;
28958;SDS011;16066;0.000;0.000;2022-10-22T05:27:50;3.70;;;3.20;;
28958;SDS011;16066;0.000;0.000;2022-10-22T05:30:15;6.00;;;3.47;;
28958;SDS011;16066;0.000;0.000;2022-10-22T05:32:41;4.23;;;3.17;;
28958;SDS011;16066;0.000;0.000;2022-10-22T05:35:06;5.37;;;3.60;;
28958;SDS011;16066;0.000;0.000;2022-10-22T05:37:32;7.00;;;3.40;;
28958;SDS011;16066;0.000;0.000;2022-10-22T05:39:58;5.03;;;3.50;;
28958;SDS011;16066;0.000;0.000;2022-10-22T05:42:23;4.10;;;2.90;;
28958;SDS011;16066;0.000;0.000;2022-10-22T05:44:49;5.63;;;3.63;;
28958;SDS011;16066;0.000;0.000;2022-10-22T05:47:14;4.53;;;2.87;;
28958;SDS011;16066;0.000;0.000;2022-10-22T05:49:40;14.43;;;3.40;;
28958;SDS011;16066;0.000;0.000;2022-10-22T05:52:05;7.67;;;3.80;;
28958;SDS011;16066;0.000;0.000;2022-10-22T05:54:31;4.43;;;2.97;;
28958;SDS011;16066;0.000;0.000;2022-10-22T05:56:56;5.37;;;3.37;;
28958;SDS011;16066;0.000;0.000;2022-10-22T05:59:22;5.43;;;2.90;;
28958;SDS011;16066;0.000;0.000;2022-10-22T06:01:47;8.13;;;3.70;;
28958;SDS011;16066;0.000;0.000;2022-10-22T06:04:13;5.43;;;3.40;;
28958;SDS011;16066;0.000;0.000;2022-10-22T06:06:44;6.27;;;3.17;;
28958;SDS011;16066;0.000;0.000;2022-10-22T06:09:32;5.83;;;3.23;;
28958;SDS011;16066;0.000;0.000;2022-10-22T06:12:00;6.23;;;3.23;;
28958;SDS011;16066;0.000;0.000;2022-10-22T06:14:25;7.37;;;3.87;;
28958;SDS011;16066;0.000;0.000;2022-10-22T06:16:52;6.80;;;3.40;;
28958;SDS011;16066;0.000;0.000;2022-10-22T06:19:18;5.57;;;3.50;;
28958;SDS011;16066;0.000;0.000;2022-10-22T06:21:47;7.67;;;3.70;;
28958;SDS011;16066;0.000;0.000;2022-10-22T06:24:13;6.03;;;3.80;;
28958;SDS011;16066;0.000;0.000;2022-10-22T06:26:39;6.10;;;3.90;;
28958;SDS011;16066;0.000;0.000;2022-10-22T06:29:05;7.33;;;3.37;;
28958;SDS011;16066;0.000;0.000;2022-10-22T06:31:31;5.20;;;3.27;;
28958;SDS011;16066;0.000;0.000;2022-10-22T06:34:01;8.83;;;3.73;;
28958;SDS011;16066;0.000;0.000;2022-10-22T06:36:27;7.47;;;3.50;;
28958;SDS011;16066;0.000;0.000;2022-10-22T06:38:53;5.57;;;3.27;;
28958;SDS011;16066;0.000;0.000;2022-10-22T06:41:20;4.40;;;2.87;;
28958;SDS011;16066;0.000;0.000;2022-10-22T06:43:46;7.90;;;3.70;;
28958;SDS011;16066;0.000;0.000;2022-10-22T06:46:13;7.50;;;3.40;;
28958;SDS011;16066;0.000;0.000;2022-10-22T06:48:40;5.03;;;3.07;;
28958;SDS011;16066;0.000;0.000;2022-10-22T06:51:06;4.00;;;2.93;;
28958;SDS011;16066;0.000;0.000;2022-10-22T06:53:35;8.17;;;3.60;;
28958;SDS011;16066;0.000;0.000;2022-10-22T06:56:08;6.33;;;3.20;;
28958;SDS011;16066;0.000;0.000;2022-10-22T06:58:38;9.03;;;3.30;;
28958;SDS011;16066;0.000;0.000;2022-10-22T07:01:05;5.73;;;2.80;;
28958;SDS011;16066;0.000;0.000;2022-10-22T07:03:32;4.63;;;3.00;;
28958;SDS011;16066;0.000;0.000;2022-10-22T07:06:02;3.40;;;3.00;;
28958;SDS011;16066;0.000;0.000;2022-10-22T07:08:30;6.33;;;3.17;;
28958;SDS011;16066;0.000;0.000;2022-10-22T07:11:03;6.10;;;3.10;;
28958;SDS011;16066;0.000;0.000;2022-10-22T07:13:31;5.17;;;2.97;;
28958;SDS011;16066;0.000;0.000;2022-10-22T07:15:56;6.03;;;3.30;;
28958;SDS011;16066;0.000;0.000;2022-10-22T07:18:22;8.50;;;3.40;;
28958;SDS011;16066;0.000;0.000;2022-10-22T07:20:48;5.97;;;2.90;;
28958;SDS011;16066;0.000;0.000;2022-10-22T07:23:13;5.73;;;2.90;;
28958;SDS011;16066;0.000;0.000;2022-10-22T07:25:39;5.60;;;3.60;;
28958;SDS011;16066;0.000;0.000;2022-10-22T07:28:05;7.10;;;2.93;;
28958;SDS011;16066;0.000;0.000;2022-10-22T07:30:31;5.23;;;2.70;;
28958;SDS011;16066;0.000;0.000;2022-10-22T07:32:57;4.27;;;2.47;;
28958;SDS011;16066;0.000;0.000;2022-10-22T07:35:23;3.50;;;2.43;;
28958;SDS011;16066;0.000;0.000;2022-10-22T07:37:49;9.93;;;2.90;;
28958;SDS011;16066;0.000;0.000;2022-10-22T07:40:14;5.80;;;2.90;;
28958;SDS011;16066;0.000;0.000;2022-10-22T07:42:40;5.53;;;3.57;;
28958;SDS011;16066;0.000;0.000;2022-10-22T07:45:05;6.17;;;2.40;;
28958;SDS011;16066;0.000;0.000;2022-10-22T07:47:31;12.07;;;4.73;;
28958;SDS011;16066;0.000;0.000;2022-10-22T07:49:57;3.90;;;2.97;;
28958;SDS011;16066;0.000;0.000;2022-10-22T07:52:23;9.80;;;4.00;;
28958;SDS011;16066;0.000;0.000;2022-10-22T07:54:48;5.50;;;3.20;;
28958;SDS011;16066;0.000;0.000;2022-10-22T07:57:14;4.60;;;2.60;;
28958;SDS011;16066;0.000;0.000;2022-10-22T07:59:39;5.43;;;3.20;;
28958;SDS011;16066;0.000;0.000;2022-10-22T08:02:05;7.90;;;3.40;;
28958;SDS011;16066;0.000;0.000;2022-10-22T08:04:31;4.73;;;2.57;;
28958;SDS011;16066;0.000;0.000;2022-10-22T08:06:56;5.80;;;2.97;;
28958;SDS011;16066;0.000;0.000;2022-10-22T08:09:22;4.80;;;2.27;;
28958;SDS011;16066;0.000;0.000;2022-10-22T08:11:47;6.07;;;2.70;;
28958;SDS011;16066;0.000;0.000;2022-10-22T08:14:13;7.43;;;3.37;;
28958;SDS011;16066;0.000;0.000;2022-10-22T08:16:38;3.43;;;2.83;;
28958;SDS011;16066;0.000;0.000;2022-10-22T08:19:04;6.63;;;2.77;;
28958;SDS011;16066;0.000;0.000;2022-10-22T08:21:29;7.93;;;3.03;;
28958;SDS011;16066;0.000;0.000;2022-10-22T08:23:55;8.50;;;3.00;;
28958;SDS011;16066;0.000;0.000;2022-10-22T08:26:20;7.97;;;2.83;;
28958;SDS011;16066;0.000;0.000;2022-10-22T08:28:46;7.23;;;2.33;;
28958;SDS011;16066;0.000;0.000;2022-10-22T08:31:11;3.87;;;2.50;;
28958;SDS011;16066;0.000;0.000;2022-10-22T08:33:37;6.63;;;2.63;;
28958;SDS011;16066;0.000;0.000;2022-10-22T08:36:03;8.10;;;2.93;;
28958;SDS011;16066;0.000;0.000;2022-10-22T08:38:29;6.07;;;2.40;;
28958;SDS011;16066;0.000;0.000;2022-10-22T08:41:05;4.43;;;2.30;;
28958;SDS011;16066;0.000;0.000;2022-10-22T08:46:15;6.90;;;2.50;;
28958;SDS011;16066;0.000;0.000;2022-10-22T08:49:00;4.53;;;2.40;;
28958;SDS011;16066;0.000;0.000;2022-10-22T08:51:35;11.00;;;2.93;;
28958;SDS011;16066;0.000;0.000;2022-10-22T08:59:25;12.40;;;2.70;;
28958;SDS011;16066;0.000;0.000;2022-10-22T09:02:00;4.00;;;2.73;;
28958;SDS011;16066;0.000;0.000;2022-10-22T09:04:30;6.77;;;2.90;;
28958;SDS011;16066;0.000;0.000;2022-10-22T09:07:01;3.33;;;2.17;;
28958;SDS011;16066;0.000;0.000;2022-10-22T09:09:32;4.57;;;2.80;;
28958;SDS011;16066;0.000;0.000;2022-10-22T09:12:03;6.13;;;1.97;;
28958;SDS011;16066;0.000;0.000;2022-10-22T09:14:31;4.47;;;2.33;;
28958;SDS011;16066;0.000;0.000;2022-10-22T09:17:15;9.27;;;2.70;;
28958;SDS011;16066;0.000;0.000;2022-10-22T09:20:13;10.80;;;2.80;;
28958;SDS011;16066;0.000;0.000;2022-10-22T09:25:22;6.30;;;2.80;;
28958;SDS011;16066;0.000;0.000;2022-10-22T09:27:50;6.13;;;2.60;;
28958;SDS011;16066;0.000;0.000;2022-10-22T09:30:23;4.70;;;2.70;;
28958;SDS011;16066;0.000;0.000;2022-10-22T09:32:51;8.50;;;2.87;;
28958;SDS011;16066;0.000;0.000;2022-10-22T09:35:24;6.10;;;2.73;;
28958;SDS011;16066;0.000;0.000;2022-10-22T09:37:50;7.33;;;2.07;;
28958;SDS011;16066;0.000;0.000;2022-10-22T09:40:18;5.40;;;2.53;;
28958;SDS011;16066;0.000;0.000;2022-10-22T09:42:44;10.77;;;2.10;;
28958;SDS011;16066;0.000;0.000;2022-10-22T09:45:15;7.63;;;2.60;;
28958;SDS011;16066;0.000;0.000;2022-10-22T09:47:45;6.97;;;2.47;;
28958;SDS011;16066;0.000;0.000;2022-10-22T09:53:10;6.43;;;2.23;;
28958;SDS011;16066;0.000;0.000;2022-10-22T09:56:00;8.13;;;2.83;;
28958;SDS011;16066;0.000;0.000;2022-10-22T09:58:39;7.67;;;2.63;;
28958;SDS011;16066;0.000;0.000;2022-10-22T10:01:06;6.70;;;2.63;;
28958;SDS011;16066;0.000;0.000;2022-10-22T10:03:32;7.20;;;2.20;;
28958;SDS011;16066;0.000;0.000;2022-10-22T10:05:58;9.23;;;2.43;;
28958;SDS011;16066;0.000;0.000;2022-10-22T10:08:24;7.90;;;2.50;;
28958;SDS011;16066;0.000;0.000;2022-10-22T10:11:01;6.97;;;2.60;;
28958;SDS011;16066;0.000;0.000;2022-10-22T10:13:32;6.30;;;2.40;;
28958;SDS011;16066;0.000;0.000;2022-10-22T10:19:04;9.90;;;2.93;;
28958;SDS011;16066;0.000;0.000;2022-10-22T10:21:45;4.07;;;2.17;;
28958;SDS011;16066;0.000;0.000;2022-10-22T10:24:28;7.00;;;2.60;;
28958;SDS011;16066;0.000;0.000;2022-10-22T10:30:01;7.70;;;2.40;;
28958;SDS011;16066;0.000;0.000;2022-10-22T10:35:14;14.90;;;2.77;;
28958;SDS011;16066;0.000;0.000;2022-10-22T10:38:16;21.33;;;2.63;;
28958;SDS011;16066;0.000;0.000;2022-10-22T10:47:17;7.40;;;2.70;;
28958;SDS011;16066;0.000;0.000;2022-10-22T10:49:53;6.20;;;2.30;;
28958;SDS011;16066;0.000;0.000;2022-10-22T10:52:32;8.30;;;2.10;;
28958;SDS011;16066;0.000;0.000;2022-10-22T11:00:56;8.73;;;1.93;;
28958;SDS011;16066;0.000;0.000;2022-10-22T11:03:33;5.37;;;2.13;;
28958;SDS011;16066;0.000;0.000;2022-10-22T11:06:13;8.40;;;2.47;;
28958;SDS011;16066;0.000;0.000;2022-10-22T11:08:46;6.93;;;2.03;;
28958;SDS011;16066;0.000;0.000;2022-10-22T11:11:35;8.57;;;2.33;;
28958;SDS011;16066;0.000;0.000;2022-10-22T11:14:25;6.87;;;2.30;;
28958;SDS011;16066;0.000;0.000;2022-10-22T11:19:47;6.43;;;2.30;;
28958;SDS011;16066;0.000;0.000;2022-10-22T11:22:25;6.87;;;2.07;;
28958;SDS011;16066;0.000;0.000;2022-10-22T11:25:17;4.97;;;1.90;;
28958;SDS011;16066;0.000;0.000;2022-10-22T11:27:52;6.33;;;1.97;;
28958;SDS011;16066;0.000;0.000;2022-10-22T11:30:22;6.70;;;1.67;;
28958;SDS011;16066;0.000;0.000;2022-10-22T11:32:54;5.17;;;1.93;;
28958;SDS011;16066;0.000;0.000;2022-10-22T11:35:25;4.07;;;1.90;;
28958;SDS011;16066;0.000;0.000;2022-10-22T11:37:55;7.83;;;1.67;;
28958;SDS011;16066;0.000;0.000;2022-10-22T11:40:29;6.40;;;2.20;;
28958;SDS011;16066;0.000;0.000;2022-10-22T11:43:09;4.40;;;2.10;;
28958;SDS011;16066;0.000;0.000;2022-10-22T11:45:49;5.23;;;2.33;;
28958;SDS011;16066;0.000;0.000;2022-10-22T11:48:34;6.07;;;2.17;;
28958;SDS011;16066;0.000;0.000;2022-10-22T11:51:01;4.53;;;2.10;;
28958;SDS011;16066;0.000;0.000;2022-10-22T11:53:31;4.53;;;2.03;;
28958;SDS011;16066;0.000;0.000;2022-10-22T11:56:02;3.40;;;1.87;;
28958;SDS011;16066;0.000;0.000;2022-10-22T12:03:41;4.80;;;2.43;;
28958;SDS011;16066;0.000;0.000;2022-10-22T12:17:03;3.53;;;1.80;;
28958;SDS011;16066;0.000;0.000;2022-10-22T12:19:35;4.40;;;2.00;;
28958;SDS011;16066;0.000;0.000;2022-10-22T12:25:01;8.27;;;1.97;;
28958;SDS011;16066;0.000;0.000;2022-10-22T12:27:40;6.30;;;1.80;;
28958;SDS011;16066;0.000;0.000;2022-10-22T12:30:19;1.93;;;1.27;;
28958;SDS011;16066;0.000;0.000;2022-10-22T12:32:49;7.10;;;2.07;;
28958;SDS011;16066;0.000;0.000;2022-10-22T12:35:21;3.67;;;1.87;;
28958;SDS011;16066;0.000;0.000;2022-10-22T12:37:49;8.67;;;1.90;;
28958;SDS011;16066;0.000;0.000;2022-10-22T12:40:20;6.57;;;2.00;;
28958;SDS011;16066;0.000;0.000;2022-10-22T12:42:54;4.83;;;2.43;;
28958;SDS011;16066;0.000;0.000;2022-10-22T12:45:31;5.10;;;1.80;;
28958;SDS011;16066;0.000;0.000;2022-10-22T12:48:13;4.13;;;1.93;;
28958;SDS011;16066;0.000;0.000;2022-10-22T12:50:47;4.80;;;1.93;;
28958;SDS011;16066;0.000;0.000;2022-10-22T12:53:16;7.37;;;1.87;;
28958;SDS011;16066;0.000;0.000;2022-10-22T12:55:49;4.20;;;1.80;;
28958;SDS011;16066;0.000;0.000;2022-10-22T12:58:17;4.30;;;1.87;;
28958;SDS011;16066;0.000;0.000;2022-10-22T13:00:45;5.90;;;2.00;;
28958;SDS011;16066;0.000;0.000;2022-10-22T13:03:18;7.17;;;2.00;;
28958;SDS011;16066;0.000;0.000;2022-10-22T13:05:52;11.77;;;2.47;;
28958;SDS011;16066;0.000;0.000;2022-10-22T13:08:20;4.17;;;1.70;;
28958;SDS011;16066;0.000;0.000;2022-10-22T13:10:48;3.67;;;1.67;;
28958;SDS011;16066;0.000;0.000;2022-10-22T13:18:39;3.90;;;1.60;;
28958;SDS011;16066;0.000;0.000;2022-10-22T13:21:05;6.40;;;2.00;;
28958;SDS011;16066;0.000;0.000;2022-10-22T13:23:50;8.47;;;1.80;;
28958;SDS011;16066;0.000;0.000;2022-10-22T13:26:17;9.07;;;2.20;;
28958;SDS011;16066;0.000;0.000;2022-10-22T13:28:48;9.87;;;2.50;;
28958;SDS011;16066;0.000;0.000;2022-10-22T13:31:17;3.07;;;1.30;;
28958;SDS011;16066;0.000;0.000;2022-10-22T13:33:52;3.80;;;1.80;;
28958;SDS011;16066;0.000;0.000;2022-10-22T13:36:21;2.90;;;1.47;;
28958;SDS011;16066;0.000;0.000;2022-10-22T13:38:48;5.17;;;1.53;;
28958;SDS011;16066;0.000;0.000;2022-10-22T13:41:17;3.00;;;1.90;;
28958;SDS011;16066;0.000;0.000;2022-10-22T13:43:55;3.47;;;1.63;;
28958;SDS011;16066;0.000;0.000;2022-10-22T13:46:22;4.07;;;2.03;;
28958;SDS011;16066;0.000;0.000;2022-10-22T13:48:49;3.40;;;1.40;;
28958;SDS011;16066;0.000;0.000;2022-10-22T13:51:20;6.50;;;1.40;;
28958;SDS011;16066;0.000;0.000;2022-10-22T13:53:48;2.80;;;1.43;;
28958;SDS011;16066;0.000;0.000;2022-10-22T13:56:16;4.83;;;1.70;;
28958;SDS011;16066;0.000;0.000;2022-10-22T13:58:44;2.33;;;1.20;;
28958;SDS011;16066;0.000;0.000;2022-10-22T14:01:14;4.90;;;1.53;;
28958;SDS011;16066;0.000;0.000;2022-10-22T14:03:41;5.00;;;1.37;;
28958;SDS011;16066;0.000;0.000;2022-10-22T14:06:09;6.70;;;1.80;;
28958;SDS011;16066;0.000;0.000;2022-10-22T14:08:37;3.73;;;2.20;;
28958;SDS011;16066;0.000;0.000;2022-10-22T14:11:03;6.77;;;2.23;;
28958;SDS011;16066;0.000;0.000;2022-10-22T14:13:29;4.30;;;2.13;;
28958;SDS011;16066;0.000;0.000;2022-10-22T14:15:54;3.67;;;1.67;;
28958;SDS011;16066;0.000;0.000;2022-10-22T14:18:23;4.47;;;2.37;;
28958;SDS011;16066;0.000;0.000;2022-10-22T14:20:54;3.67;;;2.07;;
28958;SDS011;16066;0.000;0.000;2022-10-22T14:23:22;8.27;;;2.50;;
28958;SDS011;16066;0.000;0.000;2022-10-22T14:25:50;5.17;;;2.37;;
28958;SDS011;16066;0.000;0.000;2022-10-22T14:28:15;4.00;;;2.03;;
28958;SDS011;16066;0.000;0.000;2022-10-22T14:30:41;8.50;;;2.60;;
28958;SDS011;16066;0.000;0.000;2022-10-22T14:33:14;3.60;;;2.07;;
28958;SDS011;16066;0.000;0.000;2022-10-22T14:35:42;6.73;;;2.10;;
28958;SDS011;16066;0.000;0.000;2022-10-22T14:38:08;16.57;;;2.50;;
28958;SDS011;16066;0.000;0.000;2022-10-22T14:40:33;5.57;;;2.07;;
28958;SDS011;16066;0.000;0.000;2022-10-22T14:43:02;7.47;;;2.13;;
28958;SDS011;16066;0.000;0.000;2022-10-22T14:45:28;9.70;;;2.63;;
28958;SDS011;16066;0.000;0.000;2022-10-22T14:47:53;4.00;;;1.93;;
28958;SDS011;16066;0.000;0.000;2022-10-22T14:50:19;7.73;;;2.30;;
28958;SDS011;16066;0.000;0.000;2022-10-22T14:52:45;6.80;;;2.17;;
28958;SDS011;16066;0.000;0.000;2022-10-22T14:55:12;3.97;;;1.83;;
28958;SDS011;16066;0.000;0.000;2022-10-22T14:57:39;6.70;;;2.40;;
28958;SDS011;16066;0.000;0.000;2022-10-22T15:00:06;7.70;;;3.37;;
28958;SDS011;16066;0.000;0.000;2022-10-22T15:02:33;4.10;;;2.10;;
28958;SDS011;16066;0.000;0.000;2022-10-22T15:04:59;6.70;;;2.57;;
28958;SDS011;16066;0.000;0.000;2022-10-22T15:07:24;3.77;;;2.37;;
28958;SDS011;16066;0.000;0.000;2022-10-22T15:09:51;7.53;;;2.10;;
28958;SDS011;16066;0.000;0.000;2022-10-22T15:12:17;5.60;;;2.50;;
28958;SDS011;16066;0.000;0.000;2022-10-22T15:14:44;7.80;;;2.20;;
28958;SDS011;16066;0.000;0.000;2022-10-22T15:17:14;5.80;;;2.43;;
28958;SDS011;16066;0.000;0.000;2022-10-22T15:19:41;7.40;;;2.17;;
28958;SDS011;16066;0.000;0.000;2022-10-22T15:22:10;4.23;;;2.20;;
28958;SDS011;16066;0.000;0.000;2022-10-22T15:24:36;4.23;;;1.70;;
28958;SDS011;16066;0.000;0.000;2022-10-22T15:27:02;5.20;;;2.30;;
28958;SDS011;16066;0.000;0.000;2022-10-22T15:29:29;10.40;;;3.60;;
28958;SDS011;16066;0.000;0.000;2022-10-22T15:31:56;24.03;;;8.30;;
28958;SDS011;16066;0.000;0.000;2022-10-22T15:34:26;10.37;;;6.53;;
28958;SDS011;16066;0.000;0.000;2022-10-22T15:36:54;17.20;;;8.07;;
28958;SDS011;16066;0.000;0.000;2022-10-22T15:39:21;53.10;;;20.50;;
28958;SDS011;16066;0.000;0.000;2022-10-22T15:41:47;50.10;;;18.80;;
28958;SDS011;16066;0.000;0.000;2022-10-22T15:44:14;32.53;;;14.60;;
28958;SDS011;16066;0.000;0.000;2022-10-22T15:46:41;42.80;;;21.97;;
28958;SDS011;16066;0.000;0.000;2022-10-22T15:49:07;53.10;;;22.60;;
28958;SDS011;16066;0.000;0.000;2022-10-22T15:51:32;53.63;;;21.77;;
28958;SDS011;16066;0.000;0.000;2022-10-22T15:53:58;59.03;;;24.63;;
28958;SDS011;16066;0.000;0.000;2022-10-22T15:56:25;49.07;;;25.63;;
28958;SDS011;16066;0.000;0.000;2022-10-22T15:58:59;45.67;;;18.67;;
28958;SDS011;16066;0.000;0.000;2022-10-22T16:01:28;25.97;;;13.57;;
28958;SDS011;16066;0.000;0.000;2022-10-22T16:03:53;23.73;;;11.67;;
28958;SDS011;16066;0.000;0.000;2022-10-22T16:06:27;20.43;;;10.27;;
28958;SDS011;16066;0.000;0.000;2022-10-22T16:08:55;18.07;;;8.83;;
28958;SDS011;16066;0.000;0.000;2022-10-22T16:11:21;17.77;;;8.77;;
28958;SDS011;16066;0.000;0.000;2022-10-22T16:13:47;11.80;;;5.70;;
28958;SDS011;16066;0.000;0.000;2022-10-22T16:16:16;13.67;;;7.10;;
28958;SDS011;16066;0.000;0.000;2022-10-22T16:18:41;11.73;;;5.20;;
28958;SDS011;16066;0.000;0.000;2022-10-22T16:21:10;11.63;;;4.40;;
28958;SDS011;16066;0.000;0.000;2022-10-22T16:23:37;9.63;;;5.77;;
28958;SDS011;16066;0.000;0.000;2022-10-22T16:26:02;10.23;;;3.80;;
28958;SDS011;16066;0.000;0.000;2022-10-22T16:28:28;11.40;;;4.43;;
28958;SDS011;16066;0.000;0.000;2022-10-22T16:30:53;7.97;;;3.90;;
28958;SDS011;16066;0.000;0.000;2022-10-22T16:33:19;10.90;;;3.57;;
28958;SDS011;16066;0.000;0.000;2022-10-22T16:35:44;11.63;;;4.10;;